Time;durP1;ratioP1;P1;durP2;ratioP2;P2;SDS_P1;SDS_P2;PMS_P1;PMS_P2;Temp;Humidity;BMP_temperature;BMP_pressure;BME280_temperature;BME280_humidity;BME280_pressure;Samples;Min_cycle;Max_cycle;Signal;HPM_P1;HPM_P2
2022/04/10 00:00:24;;;;;;;;;;;23.60;45.70;;;;;;1602830;74;684;-65
2022/04/10 00:02:26;;;;;;;;;;;23.60;45.50;;;;;;1591866;73;772;-65
2022/04/10 00:04:28;;;;;;;;;;;23.60;45.60;;;;;;1602240;74;715;-65
2022/04/10 00:06:30;;;;;;;;;;;23.60;45.60;;;;;;1602690;74;1115;-66
2022/04/10 00:08:32;;;;;;;;;;;23.60;45.50;;;;;;1595307;74;1937;-66
2022/04/10 00:10:34;;;;;;;;;;;23.70;45.50;;;;;;1598718;74;691;-65
2022/04/10 00:12:36;;;;;;;;;;;23.60;45.40;;;;;;1602867;74;594;-64
2022/04/10 00:14:38;;;;;;;;;;;23.70;45.60;;;;;;1601926;73;1228;-65
2022/04/10 00:16:40;;;;;;;;;;;23.70;45.60;;;;;;1602812;74;816;-66
2022/04/10 00:18:41;;;;;;;;;;;23.60;45.50;;;;;;1602969;74;770;-64
2022/04/10 00:20:43;;;;;;;;;;;23.60;45.50;;;;;;1602964;74;793;-63
2022/04/10 00:22:47;;;;;;;;;;;23.60;45.50;;;;;;1589729;74;814;-64
2022/04/10 00:24:49;;;;;;;;;;;23.60;45.60;;;;;;1575937;73;1174;-65
2022/04/10 00:26:51;;;;;;;;;;;23.60;45.60;;;;;;1601140;73;679;-65
2022/04/10 00:28:53;;;;;;;;;;;23.60;45.50;;;;;;1588262;74;1947;-66
2022/04/10 00:30:55;;;;;;;;;;;23.60;45.60;;;;;;1602760;74;732;-65
2022/04/10 00:32:57;;;;;;;;;;;23.60;45.60;;;;;;1602785;74;725;-66
2022/04/10 00:34:59;;;;;;;;;;;23.60;45.70;;;;;;1602769;74;1145;-64
2022/04/10 00:37:00;;;;;;;;;;;23.60;45.70;;;;;;1601940;74;726;-64
2022/04/10 00:39:02;;;;;;;;;;;23.60;45.60;;;;;;1602899;74;759;-64
2022/04/10 00:41:05;;;;;;;;;;;23.60;45.70;;;;;;1585680;73;808;-64
2022/04/10 00:43:08;;;;;;;;;;;23.60;45.60;;;;;;1602777;74;775;-63
2022/04/10 00:45:10;;;;;;;;;;;23.60;45.60;;;;;;1602749;74;1132;-64
2022/04/10 00:47:12;;;;;;;;;;;23.60;45.60;;;;;;1602771;74;815;-67
2022/04/10 00:49:14;;;;;;;;;;;23.60;45.60;;;;;;1601785;74;1896;-66
2022/04/10 00:53:35;;;;;;;;;;;23.60;45.50;;;;;;1602796;74;783;-63
2022/04/10 00:55:37;;;;;;;;;;;23.60;45.50;;;;;;1601872;74;1142;-64
2022/04/10 00:57:39;;;;;;;;;;;23.60;45.50;;;;;;1602767;74;763;-65
2022/04/10 00:59:41;;;;;;;;;;;23.60;45.50;;;;;;1602985;74;623;-64
2022/04/10 01:01:44;;;;;;;;;;;23.60;45.50;;;;;;1602932;74;732;-66
2022/04/10 01:03:46;;;;;;;;;;;23.70;45.50;;;;;;1601651;74;713;-64
2022/04/10 01:05:48;;;;;;;;;;;23.60;45.40;;;;;;1602771;74;1114;-65
2022/04/10 01:07:50;;;;;;;;;;;23.60;45.50;;;;;;1603555;74;757;-64
2022/04/10 01:09:51;;;;;;;;;;;23.60;45.50;;;;;;1605811;74;1936;-65
2022/04/10 01:11:53;;;;;;;;;;;23.60;45.50;;;;;;1604053;73;631;-64
2022/04/10 01:13:55;;;;;;;;;;;23.60;45.50;;;;;;1602655;74;717;-67
2022/04/10 01:15:57;;;;;;;;;;;23.60;45.60;;;;;;1602774;74;1134;-66
2022/04/10 01:17:59;;;;;;;;;;;23.60;45.50;;;;;;1602839;74;821;-64
2022/04/10 01:20:01;;;;;;;;;;;23.70;45.60;;;;;;1601839;73;650;-63
2022/04/10 01:22:04;;;;;;;;;;;23.60;45.50;;;;;;1602896;74;622;-65
2022/04/10 01:24:06;;;;;;;;;;;23.60;45.50;;;;;;1602683;74;727;-64
2022/04/10 01:26:08;;;;;;;;;;;23.70;45.70;;;;;;1601724;73;1185;-65
2022/04/10 01:28:11;;;;;;;;;;;23.60;45.50;;;;;;1602836;74;799;-64
2022/04/10 01:30:14;;;;;;;;;;;23.60;45.50;;;;;;1593401;73;1906;-67
2022/04/10 01:32:16;;;;;;;;;;;23.70;45.70;;;;;;1596843;73;829;-66
2022/04/10 01:34:17;;;;;;;;;;;23.60;45.70;;;;;;1600042;73;770;-64
2022/04/10 01:36:19;;;;;;;;;;;23.60;45.60;;;;;;1602530;73;1126;-65
2022/04/10 01:38:21;;;;;;;;;;;23.60;45.50;;;;;;1598423;73;689;-63
2022/04/10 01:40:23;;;;;;;;;;;23.60;45.50;;;;;;1600011;73;782;-64
2022/04/10 01:42:25;;;;;;;;;;;23.60;45.60;;;;;;1602869;74;731;-65
2022/04/10 01:44:27;;;;;;;;;;;23.60;45.60;;;;;;1602743;74;737;-63
2022/04/10 01:46:29;;;;;;;;;;;23.50;45.60;;;;;;1602540;74;1047;-63
2022/04/10 01:48:31;;;;;;;;;;;23.60;45.70;;;;;;1602671;74;1958;-64
2022/04/10 01:50:33;;;;;;;;;;;23.50;45.70;;;;;;1597284;73;790;-64
2022/04/10 01:52:35;;;;;;;;;;;23.40;45.60;;;;;;1598428;73;790;-64
2022/04/10 01:54:37;;;;;;;;;;;23.40;45.60;;;;;;1601469;73;1159;-64
2022/04/10 01:56:39;;;;;;;;;;;23.50;45.70;;;;;;1597838;73;741;-64
2022/04/10 01:58:41;;;;;;;;;;;23.60;45.70;;;;;;1594232;73;752;-65
2022/04/10 02:00:43;;;;;;;;;;;23.50;45.70;;;;;;1597437;73;749;-65
2022/04/10 02:02:45;;;;;;;;;;;23.50;45.70;;;;;;1598189;73;798;-64
2022/04/10 02:04:47;;;;;;;;;;;23.60;45.70;;;;;;1596020;73;1134;-64
2022/04/10 02:06:49;;;;;;;;;;;23.50;45.70;;;;;;1600604;73;720;-63
2022/04/10 02:08:51;;;;;;;;;;;23.50;45.70;;;;;;1593681;73;1933;-66
2022/04/10 02:10:53;;;;;;;;;;;23.40;45.70;;;;;;1593823;73;834;-68
2022/04/10 02:12:54;;;;;;;;;;;23.50;45.70;;;;;;1592354;73;786;-65
2022/04/10 02:14:56;;;;;;;;;;;23.60;45.80;;;;;;1602612;73;1188;-66
2022/04/10 02:16:58;;;;;;;;;;;23.50;45.70;;;;;;1598185;73;769;-65
2022/04/10 02:19:00;;;;;;;;;;;23.50;45.70;;;;;;1589028;73;735;-65
2022/04/10 02:21:02;;;;;;;;;;;23.50;45.70;;;;;;1594004;73;697;-65
2022/04/10 02:23:04;;;;;;;;;;;23.50;45.70;;;;;;1592370;73;724;-65
2022/04/10 02:25:06;;;;;;;;;;;23.50;45.70;;;;;;1601620;73;1170;-65
2022/04/10 02:27:08;;;;;;;;;;;23.50;45.80;;;;;;1602658;73;741;-67
2022/04/10 02:29:10;;;;;;;;;;;23.50;45.80;;;;;;1595948;73;1940;-66
2022/04/10 02:31:12;;;;;;;;;;;23.60;45.90;;;;;;1596391;73;740;-64
2022/04/10 02:33:14;;;;;;;;;;;23.60;45.70;;;;;;1602506;73;723;-63
2022/04/10 02:35:16;;;;;;;;;;;23.60;45.70;;;;;;1601897;73;1134;-66
2022/04/10 02:37:17;;;;;;;;;;;23.60;45.70;;;;;;1598119;73;793;-64
2022/04/10 02:39:19;;;;;;;;;;;23.60;46.20;;;;;;1593463;73;879;-64
2022/04/10 02:41:21;;;;;;;;;;;23.50;46.30;;;;;;1589378;73;782;-64
2022/04/10 02:43:23;;;;;;;;;;;23.50;46.60;;;;;;1601502;73;782;-65
2022/04/10 02:45:25;;;;;;;;;;;23.40;46.70;;;;;;1597868;73;1135;-65
2022/04/10 02:47:27;;;;;;;;;;;23.30;46.90;;;;;;1593434;73;787;-65
2022/04/10 02:49:29;;;;;;;;;;;23.30;47.10;;;;;;1597945;73;1930;-64
2022/04/10 02:51:30;;;;;;;;;;;23.20;47.20;;;;;;1592441;73;867;-64
2022/04/10 02:53:32;;;;;;;;;;;23.10;47.30;;;;;;1597996;73;719;-63
2022/04/10 02:55:34;;;;;;;;;;;23.20;47.40;;;;;;1601150;73;1135;-64
2022/04/10 02:57:36;;;;;;;;;;;23.20;47.40;;;;;;1602583;73;815;-65
2022/04/10 02:59:38;;;;;;;;;;;23.20;47.60;;;;;;1584538;73;786;-64
2022/04/10 03:01:40;;;;;;;;;;;23.20;47.60;;;;;;1593702;73;843;-67
2022/04/10 03:03:42;;;;;;;;;;;23.20;47.70;;;;;;1596657;73;766;-65
2022/04/10 03:05:44;;;;;;;;;;;23.20;47.60;;;;;;1584212;73;1183;-66
2022/04/10 03:07:46;;;;;;;;;;;23.10;47.70;;;;;;1584575;73;753;-64
2022/04/10 03:09:48;;;;;;;;;;;23.20;47.80;;;;;;1599669;73;1949;-62
2022/04/10 03:11:50;;;;;;;;;;;23.20;47.80;;;;;;1601643;73;791;-64
2022/04/10 03:13:51;;;;;;;;;;;23.10;47.80;;;;;;1597939;73;790;-65
2022/04/10 03:15:53;;;;;;;;;;;23.20;47.80;;;;;;1602143;73;1261;-66
2022/04/10 03:17:55;;;;;;;;;;;23.20;47.80;;;;;;1593680;73;759;-64
2022/04/10 03:19:57;;;;;;;;;;;23.10;47.90;;;;;;1590126;73;785;-64
2022/04/10 03:21:59;;;;;;;;;;;23.20;47.90;;;;;;1589039;73;784;-66
2022/04/10 03:24:01;;;;;;;;;;;23.20;47.90;;;;;;1602480;73;740;-68
2022/04/10 03:26:03;;;;;;;;;;;23.20;47.80;;;;;;1596583;73;1175;-66
2022/04/10 03:28:05;;;;;;;;;;;23.20;47.90;;;;;;1593748;73;762;-64
2022/04/10 03:30:08;;;;;;;;;;;23.20;47.80;;;;;;1598180;73;1948;-65
2022/04/10 03:32:10;;;;;;;;;;;23.20;47.80;;;;;;1602238;73;735;-64
2022/04/10 03:34:12;;;;;;;;;;;23.20;47.80;;;;;;1583933;73;808;-64
2022/04/10 03:36:14;;;;;;;;;;;23.20;47.80;;;;;;1591815;73;1131;-66
2022/04/10 03:38:16;;;;;;;;;;;23.20;47.80;;;;;;1597874;73;1046;-64
2022/04/10 03:40:18;;;;;;;;;;;23.20;47.80;;;;;;1598124;73;791;-63
2022/04/10 03:42:19;;;;;;;;;;;23.20;47.90;;;;;;1584260;73;759;-67
2022/04/10 03:44:21;;;;;;;;;;;23.30;48.00;;;;;;1588912;73;816;-65
2022/04/10 03:46:23;;;;;;;;;;;23.20;47.80;;;;;;1579798;73;1104;-66
2022/04/10 03:48:25;;;;;;;;;;;23.20;47.90;;;;;;1588952;73;660;-64
2022/04/10 03:50:27;;;;;;;;;;;23.20;47.80;;;;;;1593322;73;1938;-65
2022/04/10 03:52:29;;;;;;;;;;;23.20;47.80;;;;;;1587798;73;718;-66
2022/04/10 03:54:31;;;;;;;;;;;23.20;47.90;;;;;;1592564;73;810;-66
2022/04/10 03:56:33;;;;;;;;;;;23.30;48.10;;;;;;1597855;73;1162;-65
2022/04/10 03:58:34;;;;;;;;;;;23.20;48.00;;;;;;1590386;73;715;-66
2022/04/10 04:00:36;;;;;;;;;;;23.20;48.00;;;;;;1593616;73;787;-64
2022/04/10 04:02:40;;;;;;;;;;;23.20;48.00;;;;;;1589096;73;734;-64
2022/04/10 04:04:42;;;;;;;;;;;23.20;48.00;;;;;;1580447;73;1156;-64
2022/04/10 04:06:44;;;;;;;;;;;23.30;48.30;;;;;;1589415;73;755;-67
2022/04/10 04:08:45;;;;;;;;;;;23.30;48.40;;;;;;1593687;73;762;-66
2022/04/10 04:10:47;;;;;;;;;;;23.20;48.10;;;;;;1594372;73;1940;-65
2022/04/10 04:12:49;;;;;;;;;;;23.20;48.20;;;;;;1598308;73;775;-65
2022/04/10 04:14:51;;;;;;;;;;;23.30;48.20;;;;;;1595842;73;1148;-65
2022/04/10 04:16:53;;;;;;;;;;;23.30;48.20;;;;;;1593786;73;839;-65
2022/04/10 04:18:55;;;;;;;;;;;23.20;48.00;;;;;;1592375;73;883;-65
2022/04/10 04:20:57;;;;;;;;;;;23.30;48.20;;;;;;1587404;73;731;-65
2022/04/10 04:22:59;;;;;;;;;;;23.30;48.10;;;;;;1592602;73;789;-66
2022/04/10 04:25:00;;;;;;;;;;;23.30;48.10;;;;;;1596139;73;1213;-65
2022/04/10 04:27:02;;;;;;;;;;;23.30;48.10;;;;;;1583439;73;777;-65
2022/04/10 04:29:04;;;;;;;;;;;23.30;48.00;;;;;;1584264;73;743;-64
2022/04/10 04:31:06;;;;;;;;;;;23.30;47.90;;;;;;1592562;73;1929;-65
2022/04/10 04:33:08;;;;;;;;;;;23.30;47.80;;;;;;1593610;73;724;-65
2022/04/10 04:35:12;;;;;;;;;;;23.30;47.90;;;;;;1592603;73;1123;-65
2022/04/10 04:37:14;;;;;;;;;;;23.30;47.90;;;;;;1589836;73;1650;-65
2022/04/10 04:39:15;;;;;;;;;;;23.30;47.90;;;;;;1588864;73;859;-66
2022/04/10 04:41:17;;;;;;;;;;;23.30;47.90;;;;;;1584496;73;780;-65
2022/04/10 04:43:19;;;;;;;;;;;23.30;47.90;;;;;;1589371;73;752;-63
2022/04/10 04:45:22;;;;;;;;;;;23.30;47.90;;;;;;1588071;73;1104;-65
2022/04/10 04:47:24;;;;;;;;;;;23.30;47.90;;;;;;1593388;73;790;-64
2022/04/10 04:49:26;;;;;;;;;;;23.30;47.90;;;;;;1586921;73;737;-65
2022/04/10 04:51:28;;;;;;;;;;;23.30;47.90;;;;;;1596878;73;1918;-65
2022/04/10 04:53:30;;;;;;;;;;;23.30;47.90;;;;;;1601268;73;753;-64
2022/04/10 04:55:32;;;;;;;;;;;23.30;47.90;;;;;;1601189;73;1195;-65
2022/04/10 04:57:34;;;;;;;;;;;23.30;47.90;;;;;;1589708;73;743;-65
2022/04/10 04:59:35;;;;;;;;;;;23.30;47.90;;;;;;1592499;73;733;-67
2022/04/10 05:01:40;;;;;;;;;;;23.30;47.80;;;;;;1584982;73;653;-65
2022/04/10 05:03:41;;;;;;;;;;;23.30;47.80;;;;;;1585110;73;1502;-64
2022/04/10 05:05:43;;;;;;;;;;;23.30;47.80;;;;;;1589580;73;1210;-63
2022/04/10 05:07:45;;;;;;;;;;;23.40;47.80;;;;;;1598239;74;718;-63
2022/04/10 05:09:46;;;;;;;;;;;23.30;47.80;;;;;;1590853;73;1943;-64
2022/04/10 05:11:49;;;;;;;;;;;23.30;47.80;;;;;;1590639;73;812;-65
2022/04/10 05:13:51;;;;;;;;;;;23.30;47.80;;;;;;1602755;74;721;-64
2022/04/10 05:15:53;;;;;;;;;;;23.40;47.80;;;;;;1602829;74;1147;-66
2022/04/10 05:17:54;;;;;;;;;;;23.30;47.80;;;;;;1602874;74;718;-65
2022/04/10 05:19:56;;;;;;;;;;;23.40;47.70;;;;;;1602995;74;629;-65
2022/04/10 05:21:58;;;;;;;;;;;23.40;47.80;;;;;;1601740;73;580;-67
2022/04/10 05:24:00;;;;;;;;;;;23.40;47.80;;;;;;1602771;74;748;-64
2022/04/10 05:26:02;;;;;;;;;;;23.30;47.90;;;;;;1601616;74;1168;-69
2022/04/10 05:28:05;;;;;;;;;;;23.40;47.90;;;;;;1597990;73;739;-64
2022/04/10 05:30:07;;;;;;;;;;;23.40;47.90;;;;;;1596302;73;1954;-63
2022/04/10 05:32:10;;;;;;;;;;;23.40;47.80;;;;;;1602664;74;721;-65
2022/04/10 05:34:12;;;;;;;;;;;23.30;47.60;;;;;;1602846;74;747;-64
2022/04/10 05:36:14;;;;;;;;;;;23.40;47.30;;;;;;1601910;74;1137;-64
2022/04/10 05:38:15;;;;;;;;;;;23.60;47.10;;;;;;1602829;74;642;-64
2022/04/10 05:40:17;;;;;;;;;;;23.70;46.80;;;;;;1602582;73;742;-65
2022/04/10 05:42:19;;;;;;;;;;;23.70;46.50;;;;;;1598215;73;788;-64
2022/04/10 05:44:21;;;;;;;;;;;23.70;46.40;;;;;;1601561;73;734;-65
2022/04/10 05:46:25;;;;;;;;;;;23.90;46.10;;;;;;1599042;73;1108;-64
2022/04/10 05:48:26;;;;;;;;;;;23.80;46.00;;;;;;1602960;73;1750;-64
2022/04/10 05:50:28;;;;;;;;;;;23.90;46.00;;;;;;1630668;73;1929;-63
2022/04/10 05:52:30;;;;;;;;;;;23.90;45.90;;;;;;1613270;73;809;-65
2022/04/10 05:54:32;;;;;;;;;;;23.90;45.90;;;;;;1602270;73;800;-64
2022/04/10 05:56:34;;;;;;;;;;;23.80;45.60;;;;;;1603405;73;1130;-65
2022/04/10 05:58:36;;;;;;;;;;;24.00;45.50;;;;;;1603575;73;776;-64
2022/04/10 06:00:38;;;;;;;;;;;24.00;45.30;;;;;;1603437;73;778;-64
2022/04/10 06:02:40;;;;;;;;;;;23.90;45.30;;;;;;1603696;73;699;-64
2022/04/10 06:04:42;;;;;;;;;;;23.90;45.30;;;;;;1602627;73;1163;-64
2022/04/10 06:06:43;;;;;;;;;;;24.00;45.10;;;;;;1603333;73;675;-63
2022/04/10 06:08:45;;;;;;;;;;;24.00;45.00;;;;;;1612010;73;741;-64
2022/04/10 06:10:47;;;;;;;;;;;24.00;44.90;;;;;;1603162;73;1969;-66
2022/04/10 06:12:49;;;;;;;;;;;24.10;45.00;;;;;;1578681;74;760;-63
2022/04/10 06:14:51;;;;;;;;;;;24.00;44.90;;;;;;1616400;73;1133;-64
2022/04/10 06:16:53;;;;;;;;;;;24.00;45.00;;;;;;1601860;73;651;-64
2022/04/10 06:18:55;;;;;;;;;;;24.00;45.00;;;;;;1603479;73;755;-64
2022/04/10 06:20:57;;;;;;;;;;;24.10;45.00;;;;;;1602940;73;786;-64
2022/04/10 06:23:00;;;;;;;;;;;24.00;44.70;;;;;;1601618;73;711;-64
2022/04/10 06:25:02;;;;;;;;;;;24.00;44.90;;;;;;1601184;73;1185;-68
2022/04/10 06:27:04;;;;;;;;;;;24.00;44.90;;;;;;1601788;73;776;-63
2022/04/10 06:29:06;;;;;;;;;;;24.00;44.70;;;;;;1601777;73;738;-64
2022/04/10 06:31:08;;;;;;;;;;;24.10;44.70;;;;;;1599872;73;1920;-65
2022/04/10 06:33:10;;;;;;;;;;;24.00;44.50;;;;;;1600360;73;712;-64
2022/04/10 06:35:11;;;;;;;;;;;24.10;44.60;;;;;;1599465;73;1080;-63
2022/04/10 06:37:14;;;;;;;;;;;24.00;44.40;;;;;;1602270;73;711;-64
2022/04/10 06:39:16;;;;;;;;;;;24.00;44.40;;;;;;1599109;73;776;-63
2022/04/10 06:41:18;;;;;;;;;;;23.90;44.60;;;;;;1601020;73;704;-64
2022/04/10 06:43:20;;;;;;;;;;;23.90;44.70;;;;;;1602057;73;773;-63
2022/04/10 06:45:22;;;;;;;;;;;23.90;44.60;;;;;;1602892;73;1156;-63
2022/04/10 06:47:25;;;;;;;;;;;24.00;44.50;;;;;;1595099;73;723;-63
2022/04/10 06:49:27;;;;;;;;;;;23.90;44.60;;;;;;1601786;73;722;-64
2022/04/10 06:51:29;;;;;;;;;;;24.00;44.60;;;;;;1607312;73;1927;-62
2022/04/10 06:53:31;;;;;;;;;;;23.90;44.60;;;;;;1615714;73;782;-64
2022/04/10 06:55:33;;;;;;;;;;;23.90;44.50;;;;;;1591542;73;1160;-63
2022/04/10 06:57:35;;;;;;;;;;;23.70;44.60;;;;;;1599230;73;840;-66
2022/04/10 06:59:37;;;;;;;;;;;23.80;44.70;;;;;;1603023;73;798;-63
2022/04/10 07:01:39;;;;;;;;;;;23.70;44.70;;;;;;1596096;73;659;-64
2022/04/10 07:03:40;;;;;;;;;;;23.70;44.90;;;;;;1604989;73;641;-65
2022/04/10 07:05:42;;;;;;;;;;;23.70;44.80;;;;;;1601329;73;1131;-68
2022/04/10 07:07:44;;;;;;;;;;;23.60;44.90;;;;;;1607578;73;785;-63
2022/04/10 07:09:46;;;;;;;;;;;23.70;45.00;;;;;;1601634;73;788;-62
2022/04/10 07:11:48;;;;;;;;;;;23.70;45.00;;;;;;1605856;73;1933;-63
2022/04/10 07:13:50;;;;;;;;;;;23.60;44.90;;;;;;1596562;73;779;-63
2022/04/10 07:15:52;;;;;;;;;;;23.60;44.90;;;;;;1600128;73;1080;-63
2022/04/10 07:17:56;;;;;;;;;;;23.50;45.00;;;;;;1602913;73;703;-62
2022/04/10 07:19:58;;;;;;;;;;;23.50;45.00;;;;;;1595527;73;755;-63
2022/04/10 07:24:19;;;;;;;;;;;23.50;45.20;;;;;;1601072;73;1701;-63
2022/04/10 07:26:21;;;;;;;;;;;23.50;45.10;;;;;;1602712;73;1168;-62
2022/04/10 07:28:23;;;;;;;;;;;23.40;45.00;;;;;;1601228;73;714;-63
2022/04/10 07:30:25;;;;;;;;;;;23.50;45.20;;;;;;1633368;73;708;-63
2022/04/10 07:32:27;;;;;;;;;;;23.50;45.20;;;;;;1603275;73;1936;-64
2022/04/10 07:34:29;;;;;;;;;;;23.40;45.10;;;;;;1607224;73;771;-65
2022/04/10 07:36:32;;;;;;;;;;;23.50;45.30;;;;;;1603300;73;1055;-65
2022/04/10 07:38:34;;;;;;;;;;;23.40;45.20;;;;;;1599525;73;797;-66
2022/04/10 07:40:38;;;;;;;;;;;23.40;45.20;;;;;;1603346;73;680;-64
2022/04/10 07:42:44;;;;;;;;;;;23.30;45.20;;;;;;1598191;73;723;-62
2022/04/10 07:44:45;;;;;;;;;;;23.40;45.20;;;;;;1601343;73;1147;-63
2022/04/10 07:49:07;;;;;;;;;;;23.40;45.20;;;;;;1603242;73;1621;-65
2022/04/10 07:51:09;;;;;;;;;;;23.30;45.30;;;;;;1601066;73;1936;-63
2022/04/10 07:53:11;;;;;;;;;;;23.30;45.30;;;;;;1602675;73;811;-63
2022/04/10 07:55:12;;;;;;;;;;;23.40;45.20;;;;;;1602780;73;1165;-63
2022/04/10 07:57:16;;;;;;;;;;;23.30;45.30;;;;;;1604782;73;791;-63
2022/04/10 07:59:18;;;;;;;;;;;23.40;45.20;;;;;;1599206;73;701;-64
2022/04/10 08:01:20;;;;;;;;;;;23.30;45.20;;;;;;1603111;73;725;-66
2022/04/10 08:03:22;;;;;;;;;;;23.40;45.30;;;;;;1603689;73;756;-62
2022/04/10 08:05:23;;;;;;;;;;;23.30;45.30;;;;;;1598904;73;1174;-63
2022/04/10 08:07:25;;;;;;;;;;;23.40;45.30;;;;;;1595286;73;678;-63
2022/04/10 08:09:27;;;;;;;;;;;23.30;45.20;;;;;;1598381;73;766;-63
2022/04/10 08:11:29;;;;;;;;;;;23.30;45.20;;;;;;1603911;73;1931;-64
2022/04/10 08:13:33;;;;;;;;;;;23.30;45.20;;;;;;1600709;73;791;-63
2022/04/10 08:15:35;;;;;;;;;;;23.30;45.20;;;;;;1605118;73;1144;-64
2022/04/10 08:17:37;;;;;;;;;;;23.30;45.20;;;;;;1595102;73;761;-64
2022/04/10 08:19:39;;;;;;;;;;;23.30;45.20;;;;;;1602971;73;756;-63
2022/04/10 08:21:41;;;;;;;;;;;23.30;45.20;;;;;;1606096;73;797;-66
2022/04/10 08:23:43;;;;;;;;;;;23.40;45.20;;;;;;1599591;73;770;-66
2022/04/10 08:25:44;;;;;;;;;;;23.30;45.20;;;;;;1603857;73;1198;-63
2022/04/10 08:27:46;;;;;;;;;;;23.30;45.20;;;;;;1608025;73;720;-63
2022/04/10 08:29:48;;;;;;;;;;;23.30;45.20;;;;;;1602156;73;708;-63
2022/04/10 08:31:50;;;;;;;;;;;23.30;45.20;;;;;;1602869;73;1932;-64
2022/04/10 08:33:52;;;;;;;;;;;23.30;45.20;;;;;;1601215;73;865;-63
2022/04/10 08:35:54;;;;;;;;;;;23.30;45.20;;;;;;1596884;73;1160;-63
2022/04/10 08:37:57;;;;;;;;;;;23.40;45.20;;;;;;1607773;73;903;-64
2022/04/10 08:39:59;;;;;;;;;;;23.30;45.20;;;;;;1594022;73;804;-64
2022/04/10 08:42:01;;;;;;;;;;;23.30;45.20;;;;;;1603182;73;754;-62
2022/04/10 08:44:04;;;;;;;;;;;23.40;45.20;;;;;;1606608;73;810;-65
2022/04/10 08:46:06;;;;;;;;;;;23.30;45.20;;;;;;1602790;73;1151;-64
2022/04/10 08:48:08;;;;;;;;;;;23.30;45.20;;;;;;1590279;73;723;-64
2022/04/10 08:50:10;;;;;;;;;;;23.30;45.10;;;;;;1598643;73;768;-64
2022/04/10 08:52:11;;;;;;;;;;;23.30;45.20;;;;;;1602935;73;1936;-63
2022/04/10 08:54:14;;;;;;;;;;;23.30;45.10;;;;;;1602989;73;836;-64
2022/04/10 08:56:16;;;;;;;;;;;23.30;45.10;;;;;;1601788;73;1148;-63
2022/04/10 08:58:20;;;;;;;;;;;23.30;45.10;;;;;;1598603;73;1052;-67
2022/04/10 09:00:23;;;;;;;;;;;23.30;45.10;;;;;;1594089;73;1379;-63
2022/04/10 09:02:25;;;;;;;;;;;23.40;45.00;;;;;;1597795;73;729;-63
2022/04/10 09:04:27;;;;;;;;;;;23.30;45.10;;;;;;1598525;73;732;-63
2022/04/10 09:06:29;;;;;;;;;;;23.30;45.10;;;;;;1604036;73;1104;-64
2022/04/10 09:08:31;;;;;;;;;;;23.30;45.10;;;;;;1596962;73;741;-63
2022/04/10 09:10:51;;;;;;;;;;;23.30;45.10;;;;;;1603707;73;1057;-63
2022/04/10 09:12:53;;;;;;;;;;;23.30;45.00;;;;;;1600553;73;1925;-64
2022/04/10 09:14:56;;;;;;;;;;;23.30;45.00;;;;;;1591322;73;1208;-64
2022/04/10 09:17:14;;;;;;;;;;;23.30;45.00;;;;;;1588069;73;1018;-66
2022/04/10 09:19:16;;;;;;;;;;;23.30;45.00;;;;;;1590614;73;802;-63
2022/04/10 09:21:18;;;;;;;;;;;23.30;45.10;;;;;;1584696;73;798;-63
2022/04/10 09:23:22;;;;;;;;;;;23.30;45.00;;;;;;1603099;73;656;-65
2022/04/10 09:25:24;;;;;;;;;;;23.30;45.00;;;;;;1591995;73;1195;-65
2022/04/10 09:27:32;;;;;;;;;;;23.30;45.00;;;;;;1592439;73;722;-63
2022/04/10 09:29:33;;;;;;;;;;;23.30;45.00;;;;;;1594593;73;783;-63
2022/04/10 09:31:35;;;;;;;;;;;23.30;45.00;;;;;;1569738;74;1931;-64
2022/04/10 09:33:42;;;;;;;;;;;23.30;45.00;;;;;;1593079;73;808;-64
2022/04/10 09:35:44;;;;;;;;;;;23.30;45.00;;;;;;1594636;73;1104;-67
2022/04/10 09:37:49;;;;;;;;;;;23.30;44.90;;;;;;1603401;73;732;-64
2022/04/10 09:39:52;;;;;;;;;;;23.40;44.90;;;;;;1603092;73;810;-63
2022/04/10 09:41:53;;;;;;;;;;;23.40;44.90;;;;;;1603397;73;664;-63
2022/04/10 09:43:57;;;;;;;;;;;23.30;45.00;;;;;;1572825;74;1242;-62
2022/04/10 09:45:59;;;;;;;;;;;23.30;44.90;;;;;;1608815;73;1129;-63
2022/04/10 09:48:17;;;;;;;;;;;23.30;44.90;;;;;;1598242;73;780;-63
2022/04/10 09:50:18;;;;;;;;;;;23.30;44.90;;;;;;1595264;73;915;-64
2022/04/10 09:52:20;;;;;;;;;;;23.40;45.00;;;;;;1603066;73;1918;-63
2022/04/10 09:54:22;;;;;;;;;;;23.40;44.90;;;;;;1603345;73;776;-65
2022/04/10 09:56:24;;;;;;;;;;;23.40;45.00;;;;;;1601963;73;1151;-65
2022/04/10 09:58:26;;;;;;;;;;;23.30;45.10;;;;;;1603458;73;781;-63
2022/04/10 10:00:28;;;;;;;;;;;23.30;45.30;;;;;;1603154;73;750;-63
2022/04/10 10:02:30;;;;;;;;;;;23.30;45.50;;;;;;1603168;73;867;-64
2022/04/10 10:04:36;;;;;;;;;;;23.40;45.60;;;;;;1606663;73;723;-62
2022/04/10 10:06:38;;;;;;;;;;;23.40;45.80;;;;;;1592404;73;799;-62
2022/04/10 10:08:40;;;;;;;;;;;23.40;45.90;;;;;;1594009;73;605;-62
2022/04/10 10:10:42;;;;;;;;;;;23.40;46.40;;;;;;1603334;73;822;-62
2022/04/10 10:12:45;;;;;;;;;;;23.40;46.50;;;;;;1603124;73;1921;-65
2022/04/10 10:14:47;;;;;;;;;;;23.40;46.90;;;;;;1602455;73;1136;-63
2022/04/10 10:16:49;;;;;;;;;;;23.40;47.10;;;;;;1598038;73;787;-63
2022/04/10 10:18:51;;;;;;;;;;;23.40;47.20;;;;;;1603388;73;700;-63
2022/04/10 10:20:53;;;;;;;;;;;23.40;47.30;;;;;;1603305;73;703;-62
2022/04/10 10:22:55;;;;;;;;;;;23.40;47.30;;;;;;1603214;73;789;-62
2022/04/10 10:24:58;;;;;;;;;;;23.40;47.50;;;;;;1602626;73;1190;-62
2022/04/10 10:27:18;;;;;;;;;;;23.40;47.40;;;;;;1600422;73;779;-63
2022/04/10 10:29:38;;;;;;;;;;;23.40;47.30;;;;;;1603106;73;674;-63
2022/04/10 10:31:41;;;;;;;;;;;23.40;47.50;;;;;;1591213;73;1926;-63
2022/04/10 10:33:51;;;;;;;;;;;23.40;47.60;;;;;;1610968;73;1553;-65
2022/04/10 10:35:55;;;;;;;;;;;23.50;47.20;;;;;;1604753;73;1233;-62
2022/04/10 10:37:57;;;;;;;;;;;23.40;47.00;;;;;;1602161;74;666;-64
2022/04/10 10:39:59;;;;;;;;;;;23.50;46.90;;;;;;1602513;73;705;-61
2022/04/10 10:42:11;;;;;;;;;;;23.60;46.70;;;;;;1601600;74;583;-66
2022/04/10 10:44:17;;;;;;;;;;;23.60;46.70;;;;;;1602145;73;748;-60
2022/04/10 10:46:37;;;;;;;;;;;23.70;46.60;;;;;;1601898;74;1124;-63
2022/04/10 10:48:39;;;;;;;;;;;23.60;46.20;;;;;;1599264;74;1376;-66
2022/04/10 10:50:41;;;;;;;;;;;23.60;46.10;;;;;;1585210;73;613;-63
2022/04/10 10:52:42;;;;;;;;;;;23.60;46.20;;;;;;1602638;74;1924;-62
2022/04/10 10:54:46;;;;;;;;;;;23.60;46.20;;;;;;1601620;73;1155;-66
2022/04/10 10:56:50;;;;;;;;;;;23.60;46.30;;;;;;1599996;74;1086;-65
2022/04/10 10:58:52;;;;;;;;;;;23.60;46.30;;;;;;1602713;74;725;-63
2022/04/10 11:00:53;;;;;;;;;;;23.60;46.30;;;;;;1602705;74;645;-63
2022/04/10 11:02:55;;;;;;;;;;;23.60;46.30;;;;;;1602665;74;836;-63
2022/04/10 11:04:57;;;;;;;;;;;23.50;46.30;;;;;;1601661;73;1064;-64
2022/04/10 11:07:12;;;;;;;;;;;23.50;46.30;;;;;;1602701;74;683;-59
2022/04/10 11:09:25;;;;;;;;;;;23.60;46.20;;;;;;1602669;74;734;-60
2022/04/10 11:11:28;;;;;;;;;;;23.50;46.30;;;;;;1601760;73;666;-62
2022/04/10 11:13:46;;;;;;;;;;;23.50;46.20;;;;;;1601177;74;1933;-59
2022/04/10 11:15:48;;;;;;;;;;;23.50;46.20;;;;;;1601311;74;1567;-62
2022/04/10 11:17:51;;;;;;;;;;;23.50;46.20;;;;;;1602667;74;670;-60
2022/04/10 11:19:57;;;;;;;;;;;23.50;46.10;;;;;;1602437;74;707;-60
2022/04/10 11:21:59;;;;;;;;;;;23.50;46.10;;;;;;1601721;74;742;-60
2022/04/10 11:24:00;;;;;;;;;;;23.50;46.10;;;;;;1602703;74;632;-58
2022/04/10 11:26:05;;;;;;;;;;;23.50;46.00;;;;;;1601513;74;1194;-60
2022/04/10 11:28:10;;;;;;;;;;;23.50;46.10;;;;;;1602284;74;1655;-60
2022/04/10 11:30:13;;;;;;;;;;;23.50;46.00;;;;;;1602512;74;675;-61
2022/04/10 11:32:16;;;;;;;;;;;23.50;46.00;;;;;;1602592;74;1929;-59
2022/04/10 11:34:21;;;;;;;;;;;23.50;46.00;;;;;;1601633;73;711;-60
2022/04/10 11:36:23;;;;;;;;;;;23.50;46.00;;;;;;1602449;74;1111;-60
2022/04/10 11:38:25;;;;;;;;;;;23.40;45.90;;;;;;1602772;74;637;-64
2022/04/10 11:40:27;;;;;;;;;;;23.50;45.90;;;;;;1602804;74;733;-62
2022/04/10 11:42:29;;;;;;;;;;;23.50;45.90;;;;;;1602237;74;654;-61
2022/04/10 11:44:31;;;;;;;;;;;23.50;45.80;;;;;;1602687;74;657;-63
2022/04/10 11:46:34;;;;;;;;;;;23.50;45.80;;;;;;1602407;74;1081;-60
2022/04/10 11:48:36;;;;;;;;;;;23.50;45.70;;;;;;1602628;74;708;-59
2022/04/10 11:50:38;;;;;;;;;;;23.50;45.70;;;;;;1601547;74;958;-59
2022/04/10 11:52:41;;;;;;;;;;;23.60;45.70;;;;;;1602631;74;1938;-62
2022/04/10 11:54:43;;;;;;;;;;;23.50;45.70;;;;;;1601560;73;1163;-59
2022/04/10 11:56:45;;;;;;;;;;;23.60;45.60;;;;;;1602546;74;795;-61
2022/04/10 11:58:47;;;;;;;;;;;23.60;45.60;;;;;;1602769;74;715;-60
2022/04/10 12:00:52;;;;;;;;;;;23.60;45.50;;;;;;1602753;74;731;-60
2022/04/10 12:02:54;;;;;;;;;;;23.60;45.40;;;;;;1602442;74;705;-61
2022/04/10 12:04:58;;;;;;;;;;;23.60;45.20;;;;;;1601661;73;1159;-64
2022/04/10 12:07:01;;;;;;;;;;;23.70;45.20;;;;;;1602437;74;1931;-60
2022/04/10 12:09:03;;;;;;;;;;;23.70;45.20;;;;;;1599254;74;1729;-59
2022/04/10 12:11:05;;;;;;;;;;;23.70;45.20;;;;;;1605718;74;708;-62
2022/04/10 12:13:11;;;;;;;;;;;23.60;45.00;;;;;;1603642;73;1925;-60
2022/04/10 12:15:18;;;;;;;;;;;23.70;45.00;;;;;;1601249;74;1490;-59
2022/04/10 12:17:20;;;;;;;;;;;23.70;45.00;;;;;;1602566;74;709;-60